sensor_id;sensor_type;location;lat;lon;timestamp;P1;durP1;ratioP1;P2;durP2;ratioP2
40649;SDS011;26342;42.826;23.992;2023-12-22T00:00:26;16.48;;;7.13;;
40649;SDS011;26342;42.826;23.992;2023-12-22T00:02:51;20.08;;;9.43;;
40649;SDS011;26342;42.826;23.992;2023-12-22T00:05:17;25.00;;;10.15;;
40649;SDS011;26342;42.826;23.992;2023-12-22T00:07:42;23.63;;;8.35;;
40649;SDS011;26342;42.826;23.992;2023-12-22T00:10:08;18.10;;;7.60;;
40649;SDS011;26342;42.826;23.992;2023-12-22T00:12:34;15.95;;;7.38;;
40649;SDS011;26342;42.826;23.992;2023-12-22T00:14:59;17.27;;;8.38;;
40649;SDS011;26342;42.826;23.992;2023-12-22T00:17:25;23.13;;;8.93;;
40649;SDS011;26342;42.826;23.992;2023-12-22T00:19:50;32.30;;;10.60;;
40649;SDS011;26342;42.826;23.992;2023-12-22T00:22:16;20.10;;;9.00;;
40649;SDS011;26342;42.826;23.992;2023-12-22T00:24:41;9.18;;;6.15;;
40649;SDS011;26342;42.826;23.992;2023-12-22T00:27:06;18.05;;;7.57;;
40649;SDS011;26342;42.826;23.992;2023-12-22T00:29:32;12.02;;;5.18;;
40649;SDS011;26342;42.826;23.992;2023-12-22T00:32:00;5.78;;;3.58;;
40649;SDS011;26342;42.826;23.992;2023-12-22T00:34:26;3.92;;;3.05;;
40649;SDS011;26342;42.826;23.992;2023-12-22T00:36:52;4.82;;;1.73;;
40649;SDS011;26342;42.826;23.992;2023-12-22T00:39:17;8.88;;;2.92;;
40649;SDS011;26342;42.826;23.992;2023-12-22T00:41:43;5.20;;;2.92;;
40649;SDS011;26342;42.826;23.992;2023-12-22T00:44:08;3.05;;;2.10;;
40649;SDS011;26342;42.826;23.992;2023-12-22T00:46:33;11.35;;;5.13;;
40649;SDS011;26342;42.826;23.992;2023-12-22T00:48:59;7.75;;;3.85;;
40649;SDS011;26342;42.826;23.992;2023-12-22T00:51:24;9.95;;;4.47;;
40649;SDS011;26342;42.826;23.992;2023-12-22T00:53:49;8.73;;;4.00;;
40649;SDS011;26342;42.826;23.992;2023-12-22T00:56:15;12.13;;;3.83;;
40649;SDS011;26342;42.826;23.992;2023-12-22T00:58:40;19.45;;;7.78;;
40649;SDS011;26342;42.826;23.992;2023-12-22T01:01:06;14.38;;;6.47;;
40649;SDS011;26342;42.826;23.992;2023-12-22T01:03:31;17.50;;;3.40;;
40649;SDS011;26342;42.826;23.992;2023-12-22T01:05:56;7.43;;;4.28;;
40649;SDS011;26342;42.826;23.992;2023-12-22T01:08:22;15.55;;;5.13;;
40649;SDS011;26342;42.826;23.992;2023-12-22T01:10:47;12.27;;;5.30;;
40649;SDS011;26342;42.826;23.992;2023-12-22T01:13:13;10.75;;;5.32;;
40649;SDS011;26342;42.826;23.992;2023-12-22T01:15:39;6.57;;;4.65;;
40649;SDS011;26342;42.826;23.992;2023-12-22T01:18:04;16.35;;;6.43;;
40649;SDS011;26342;42.826;23.992;2023-12-22T01:20:30;9.23;;;6.03;;
40649;SDS011;26342;42.826;23.992;2023-12-22T01:22:55;8.52;;;5.40;;
40649;SDS011;26342;42.826;23.992;2023-12-22T01:25:20;10.05;;;4.75;;
40649;SDS011;26342;42.826;23.992;2023-12-22T01:27:46;17.20;;;5.57;;
40649;SDS011;26342;42.826;23.992;2023-12-22T01:30:13;7.75;;;4.88;;
40649;SDS011;26342;42.826;23.992;2023-12-22T01:32:38;9.10;;;4.82;;
40649;SDS011;26342;42.826;23.992;2023-12-22T01:35:04;8.27;;;4.75;;
40649;SDS011;26342;42.826;23.992;2023-12-22T01:37:34;9.75;;;4.80;;
40649;SDS011;26342;42.826;23.992;2023-12-22T01:40:00;11.50;;;5.47;;
40649;SDS011;26342;42.826;23.992;2023-12-22T01:42:26;9.85;;;4.78;;
40649;SDS011;26342;42.826;23.992;2023-12-22T01:44:51;7.15;;;2.67;;
40649;SDS011;26342;42.826;23.992;2023-12-22T01:47:17;9.05;;;2.95;;
40649;SDS011;26342;42.826;23.992;2023-12-22T01:49:42;1.30;;;1.20;;
40649;SDS011;26342;42.826;23.992;2023-12-22T01:52:08;4.38;;;1.60;;
40649;SDS011;26342;42.826;23.992;2023-12-22T01:54:33;11.25;;;4.57;;
40649;SDS011;26342;42.826;23.992;2023-12-22T01:56:59;16.73;;;7.00;;
40649;SDS011;26342;42.826;23.992;2023-12-22T01:59:26;15.57;;;8.98;;
40649;SDS011;26342;42.826;23.992;2023-12-22T02:01:51;18.25;;;6.57;;
40649;SDS011;26342;42.826;23.992;2023-12-22T02:04:18;11.77;;;6.35;;
40649;SDS011;26342;42.826;23.992;2023-12-22T02:06:44;8.73;;;4.80;;
40649;SDS011;26342;42.826;23.992;2023-12-22T02:09:09;6.38;;;3.90;;
40649;SDS011;26342;42.826;23.992;2023-12-22T02:11:36;11.13;;;4.50;;
40649;SDS011;26342;42.826;23.992;2023-12-22T02:14:03;11.25;;;4.60;;
40649;SDS011;26342;42.826;23.992;2023-12-22T02:16:32;13.18;;;6.28;;
40649;SDS011;26342;42.826;23.992;2023-12-22T02:22:04;13.75;;;6.20;;
40649;SDS011;26342;42.826;23.992;2023-12-22T02:24:32;10.02;;;4.32;;
40649;SDS011;26342;42.826;23.992;2023-12-22T02:27:23;10.20;;;4.35;;
40649;SDS011;26342;42.826;23.992;2023-12-22T02:30:09;8.93;;;4.28;;
40649;SDS011;26342;42.826;23.992;2023-12-22T02:32:40;6.10;;;3.15;;
40649;SDS011;26342;42.826;23.992;2023-12-22T02:35:11;3.50;;;1.88;;
40649;SDS011;26342;42.826;23.992;2023-12-22T02:37:42;1.42;;;1.30;;
40649;SDS011;26342;42.826;23.992;2023-12-22T02:40:10;1.10;;;0.30;;
40649;SDS011;26342;42.826;23.992;2023-12-22T02:42:36;0.38;;;0.38;;
40649;SDS011;26342;42.826;23.992;2023-12-22T02:45:03;0.38;;;0.30;;
40649;SDS011;26342;42.826;23.992;2023-12-22T02:47:30;0.55;;;0.40;;
40649;SDS011;26342;42.826;23.992;2023-12-22T02:49:57;0.65;;;0.20;;
40649;SDS011;26342;42.826;23.992;2023-12-22T02:52:22;1.02;;;0.22;;
40649;SDS011;26342;42.826;23.992;2023-12-22T02:54:48;1.17;;;0.30;;
40649;SDS011;26342;42.826;23.992;2023-12-22T02:57:13;0.88;;;0.50;;
40649;SDS011;26342;42.826;23.992;2023-12-22T02:59:39;1.55;;;0.50;;
40649;SDS011;26342;42.826;23.992;2023-12-22T03:02:04;1.00;;;0.52;;
40649;SDS011;26342;42.826;23.992;2023-12-22T03:04:30;0.82;;;0.28;;
40649;SDS011;26342;42.826;23.992;2023-12-22T03:06:55;0.30;;;0.17;;
40649;SDS011;26342;42.826;23.992;2023-12-22T03:09:21;0.20;;;0.20;;
40649;SDS011;26342;42.826;23.992;2023-12-22T03:11:47;0.28;;;0.28;;
40649;SDS011;26342;42.826;23.992;2023-12-22T03:14:13;0.15;;;0.15;;
40649;SDS011;26342;42.826;23.992;2023-12-22T03:16:39;0.25;;;0.20;;
40649;SDS011;26342;42.826;23.992;2023-12-22T03:19:04;0.17;;;0.17;;
40649;SDS011;26342;42.826;23.992;2023-12-22T03:21:30;1.50;;;1.00;;
40649;SDS011;26342;42.826;23.992;2023-12-22T03:23:55;0.30;;;0.20;;
40649;SDS011;26342;42.826;23.992;2023-12-22T03:26:21;0.57;;;0.32;;
40649;SDS011;26342;42.826;23.992;2023-12-22T03:28:46;2.30;;;0.45;;
40649;SDS011;26342;42.826;23.992;2023-12-22T03:31:11;0.70;;;0.20;;
40649;SDS011;26342;42.826;23.992;2023-12-22T03:33:37;3.38;;;0.28;;
40649;SDS011;26342;42.826;23.992;2023-12-22T03:36:02;0.68;;;0.40;;
40649;SDS011;26342;42.826;23.992;2023-12-22T03:38:28;0.13;;;0.13;;
40649;SDS011;26342;42.826;23.992;2023-12-22T03:40:53;0.52;;;0.50;;
40649;SDS011;26342;42.826;23.992;2023-12-22T03:43:19;0.10;;;0.10;;
40649;SDS011;26342;42.826;23.992;2023-12-22T03:45:44;1.17;;;1.08;;
40649;SDS011;26342;42.826;23.992;2023-12-22T03:48:09;2.45;;;1.10;;
40649;SDS011;26342;42.826;23.992;2023-12-22T03:50:35;0.80;;;0.57;;
40649;SDS011;26342;42.826;23.992;2023-12-22T03:53:00;0.30;;;0.30;;
40649;SDS011;26342;42.826;23.992;2023-12-22T03:55:26;2.60;;;0.55;;
40649;SDS011;26342;42.826;23.992;2023-12-22T03:57:51;0.52;;;0.20;;
40649;SDS011;26342;42.826;23.992;2023-12-22T04:00:17;0.63;;;0.63;;
40649;SDS011;26342;42.826;23.992;2023-12-22T04:02:42;0.30;;;0.20;;
40649;SDS011;26342;42.826;23.992;2023-12-22T04:05:08;0.80;;;0.20;;
40649;SDS011;26342;42.826;23.992;2023-12-22T04:07:36;0.30;;;0.30;;
40649;SDS011;26342;42.826;23.992;2023-12-22T04:10:01;0.60;;;0.50;;
40649;SDS011;26342;42.826;23.992;2023-12-22T04:12:27;11.45;;;3.40;;
40649;SDS011;26342;42.826;23.992;2023-12-22T04:14:52;1.20;;;0.95;;
40649;SDS011;26342;42.826;23.992;2023-12-22T04:17:18;0.47;;;0.43;;
40649;SDS011;26342;42.826;23.992;2023-12-22T04:19:44;0.20;;;0.20;;
40649;SDS011;26342;42.826;23.992;2023-12-22T04:22:09;1.65;;;0.95;;
40649;SDS011;26342;42.826;23.992;2023-12-22T04:24:35;1.40;;;0.70;;
40649;SDS011;26342;42.826;23.992;2023-12-22T04:27:00;1.13;;;1.02;;
40649;SDS011;26342;42.826;23.992;2023-12-22T04:29:25;0.85;;;0.85;;
40649;SDS011;26342;42.826;23.992;2023-12-22T04:31:51;2.03;;;0.85;;
40649;SDS011;26342;42.826;23.992;2023-12-22T04:34:16;1.48;;;0.65;;
40649;SDS011;26342;42.826;23.992;2023-12-22T04:36:42;1.65;;;0.57;;
40649;SDS011;26342;42.826;23.992;2023-12-22T04:39:07;0.98;;;0.85;;
40649;SDS011;26342;42.826;23.992;2023-12-22T04:41:32;3.17;;;0.57;;
40649;SDS011;26342;42.826;23.992;2023-12-22T04:43:58;0.88;;;0.80;;
40649;SDS011;26342;42.826;23.992;2023-12-22T04:46:27;0.77;;;0.47;;
40649;SDS011;26342;42.826;23.992;2023-12-22T04:48:53;1.85;;;0.60;;
40649;SDS011;26342;42.826;23.992;2023-12-22T04:51:19;2.10;;;0.60;;
40649;SDS011;26342;42.826;23.992;2023-12-22T04:53:44;4.88;;;0.85;;
40649;SDS011;26342;42.826;23.992;2023-12-22T04:56:09;1.00;;;0.93;;
40649;SDS011;26342;42.826;23.992;2023-12-22T04:58:35;0.98;;;0.80;;
40649;SDS011;26342;42.826;23.992;2023-12-22T05:01:00;0.88;;;0.60;;
40649;SDS011;26342;42.826;23.992;2023-12-22T05:03:26;0.95;;;0.40;;
40649;SDS011;26342;42.826;23.992;2023-12-22T05:05:51;0.55;;;0.40;;
40649;SDS011;26342;42.826;23.992;2023-12-22T05:08:16;1.13;;;0.95;;
40649;SDS011;26342;42.826;23.992;2023-12-22T05:10:42;0.77;;;0.40;;
40649;SDS011;26342;42.826;23.992;2023-12-22T05:13:07;4.43;;;1.42;;
40649;SDS011;26342;42.826;23.992;2023-12-22T05:15:33;2.65;;;0.70;;
40649;SDS011;26342;42.826;23.992;2023-12-22T05:17:58;1.55;;;0.95;;
40649;SDS011;26342;42.826;23.992;2023-12-22T05:20:23;0.70;;;0.40;;
40649;SDS011;26342;42.826;23.992;2023-12-22T05:22:49;0.57;;;0.50;;
40649;SDS011;26342;42.826;23.992;2023-12-22T05:25:14;2.65;;;1.48;;
40649;SDS011;26342;42.826;23.992;2023-12-22T05:27:40;3.05;;;1.75;;
40649;SDS011;26342;42.826;23.992;2023-12-22T05:30:08;9.27;;;4.25;;
40649;SDS011;26342;42.826;23.992;2023-12-22T05:32:33;11.35;;;2.65;;
40649;SDS011;26342;42.826;23.992;2023-12-22T05:34:59;10.18;;;4.18;;
40649;SDS011;26342;42.826;23.992;2023-12-22T05:37:24;7.30;;;3.72;;
40649;SDS011;26342;42.826;23.992;2023-12-22T05:39:50;4.85;;;1.92;;
40649;SDS011;26342;42.826;23.992;2023-12-22T05:42:15;1.92;;;0.93;;
40649;SDS011;26342;42.826;23.992;2023-12-22T05:44:40;3.05;;;1.90;;
40649;SDS011;26342;42.826;23.992;2023-12-22T05:47:06;2.78;;;0.90;;
40649;SDS011;26342;42.826;23.992;2023-12-22T05:49:33;1.08;;;0.77;;
40649;SDS011;26342;42.826;23.992;2023-12-22T05:51:58;4.57;;;2.40;;
40649;SDS011;26342;42.826;23.992;2023-12-22T05:54:24;1.70;;;1.23;;
40649;SDS011;26342;42.826;23.992;2023-12-22T05:56:50;2.47;;;1.63;;
40649;SDS011;26342;42.826;23.992;2023-12-22T05:59:17;4.05;;;2.40;;
40649;SDS011;26342;42.826;23.992;2023-12-22T06:01:42;2.33;;;1.33;;
40649;SDS011;26342;42.826;23.992;2023-12-22T06:04:08;1.05;;;0.95;;
40649;SDS011;26342;42.826;23.992;2023-12-22T06:06:33;8.18;;;1.95;;
40649;SDS011;26342;42.826;23.992;2023-12-22T06:08:59;3.13;;;2.25;;
40649;SDS011;26342;42.826;23.992;2023-12-22T06:11:24;3.45;;;2.00;;
40649;SDS011;26342;42.826;23.992;2023-12-22T06:13:49;17.38;;;8.32;;
40649;SDS011;26342;42.826;23.992;2023-12-22T06:16:15;6.82;;;3.33;;
40649;SDS011;26342;42.826;23.992;2023-12-22T06:18:43;9.07;;;3.92;;
40649;SDS011;26342;42.826;23.992;2023-12-22T06:21:08;2.70;;;1.75;;
40649;SDS011;26342;42.826;23.992;2023-12-22T06:23:34;0.93;;;0.75;;
40649;SDS011;26342;42.826;23.992;2023-12-22T06:25:59;8.13;;;1.95;;
40649;SDS011;26342;42.826;23.992;2023-12-22T06:28:27;5.40;;;2.45;;
40649;SDS011;26342;42.826;23.992;2023-12-22T06:30:52;7.85;;;2.83;;
40649;SDS011;26342;42.826;23.992;2023-12-22T06:33:19;6.43;;;2.20;;
40649;SDS011;26342;42.826;23.992;2023-12-22T06:35:44;7.03;;;4.82;;
40649;SDS011;26342;42.826;23.992;2023-12-22T06:38:10;10.30;;;4.20;;
40649;SDS011;26342;42.826;23.992;2023-12-22T06:40:36;17.00;;;4.22;;
40649;SDS011;26342;42.826;23.992;2023-12-22T06:43:02;17.92;;;5.68;;
40649;SDS011;26342;42.826;23.992;2023-12-22T06:45:28;11.25;;;2.78;;
40649;SDS011;26342;42.826;23.992;2023-12-22T06:47:54;6.40;;;3.78;;
40649;SDS011;26342;42.826;23.992;2023-12-22T06:50:20;5.05;;;2.42;;
40649;SDS011;26342;42.826;23.992;2023-12-22T06:52:45;8.45;;;3.63;;
40649;SDS011;26342;42.826;23.992;2023-12-22T06:55:11;10.65;;;5.50;;
40649;SDS011;26342;42.826;23.992;2023-12-22T06:57:36;11.27;;;4.60;;
40649;SDS011;26342;42.826;23.992;2023-12-22T07:00:02;9.55;;;4.28;;
40649;SDS011;26342;42.826;23.992;2023-12-22T07:02:27;13.02;;;4.57;;
40649;SDS011;26342;42.826;23.992;2023-12-22T07:05:53;18.23;;;7.53;;
40649;SDS011;26342;42.826;23.992;2023-12-22T07:07:48;24.42;;;10.38;;
40649;SDS011;26342;42.826;23.992;2023-12-22T07:10:13;26.40;;;11.35;;
40649;SDS011;26342;42.826;23.992;2023-12-22T07:12:39;18.88;;;10.95;;
40649;SDS011;26342;42.826;23.992;2023-12-22T07:15:05;18.58;;;10.07;;
40649;SDS011;26342;42.826;23.992;2023-12-22T07:17:32;24.98;;;11.75;;
40649;SDS011;26342;42.826;23.992;2023-12-22T07:19:57;30.33;;;12.32;;
40649;SDS011;26342;42.826;23.992;2023-12-22T07:22:23;20.42;;;11.77;;
40649;SDS011;26342;42.826;23.992;2023-12-22T07:24:48;29.30;;;12.13;;
40649;SDS011;26342;42.826;23.992;2023-12-22T07:27:14;16.75;;;8.80;;
40649;SDS011;26342;42.826;23.992;2023-12-22T07:29:40;17.42;;;9.82;;
40649;SDS011;26342;42.826;23.992;2023-12-22T07:32:05;28.08;;;12.90;;
40649;SDS011;26342;42.826;23.992;2023-12-22T07:34:31;25.20;;;11.18;;
40649;SDS011;26342;42.826;23.992;2023-12-22T07:36:56;18.25;;;10.07;;
40649;SDS011;26342;42.826;23.992;2023-12-22T07:39:22;25.77;;;12.38;;
40649;SDS011;26342;42.826;23.992;2023-12-22T07:41:47;15.07;;;8.55;;
40649;SDS011;26342;42.826;23.992;2023-12-22T07:44:13;17.52;;;7.45;;
40649;SDS011;26342;42.826;23.992;2023-12-22T07:46:39;13.25;;;7.55;;
40649;SDS011;26342;42.826;23.992;2023-12-22T07:49:04;9.10;;;6.47;;
40649;SDS011;26342;42.826;23.992;2023-12-22T07:51:30;15.40;;;7.93;;
40649;SDS011;26342;42.826;23.992;2023-12-22T07:53:55;13.75;;;7.40;;
40649;SDS011;26342;42.826;23.992;2023-12-22T07:56:21;15.93;;;6.68;;
40649;SDS011;26342;42.826;23.992;2023-12-22T07:58:46;24.13;;;11.40;;
40649;SDS011;26342;42.826;23.992;2023-12-22T08:01:11;38.88;;;14.55;;
40649;SDS011;26342;42.826;23.992;2023-12-22T08:03:37;41.83;;;13.32;;
40649;SDS011;26342;42.826;23.992;2023-12-22T08:06:03;25.98;;;11.63;;
40649;SDS011;26342;42.826;23.992;2023-12-22T08:08:28;30.08;;;16.70;;
40649;SDS011;26342;42.826;23.992;2023-12-22T08:10:54;37.13;;;18.73;;
40649;SDS011;26342;42.826;23.992;2023-12-22T08:13:20;31.67;;;16.15;;
40649;SDS011;26342;42.826;23.992;2023-12-22T08:15:45;34.10;;;16.27;;
40649;SDS011;26342;42.826;23.992;2023-12-22T08:18:11;38.63;;;16.13;;
40649;SDS011;26342;42.826;23.992;2023-12-22T08:20:36;51.20;;;19.23;;
40649;SDS011;26342;42.826;23.992;2023-12-22T08:23:02;36.60;;;16.33;;
40649;SDS011;26342;42.826;23.992;2023-12-22T08:25:27;25.73;;;13.40;;
40649;SDS011;26342;42.826;23.992;2023-12-22T08:27:53;8.93;;;3.92;;
40649;SDS011;26342;42.826;23.992;2023-12-22T08:30:18;10.60;;;6.03;;
40649;SDS011;26342;42.826;23.992;2023-12-22T08:32:44;13.68;;;7.80;;
40649;SDS011;26342;42.826;23.992;2023-12-22T08:35:10;21.30;;;7.28;;
40649;SDS011;26342;42.826;23.992;2023-12-22T08:37:35;16.45;;;7.53;;
40649;SDS011;26342;42.826;23.992;2023-12-22T08:40:02;10.88;;;4.93;;
40649;SDS011;26342;42.826;23.992;2023-12-22T08:42:27;6.10;;;3.40;;
40649;SDS011;26342;42.826;23.992;2023-12-22T08:44:55;10.77;;;5.45;;
40649;SDS011;26342;42.826;23.992;2023-12-22T08:47:21;7.38;;;3.67;;
40649;SDS011;26342;42.826;23.992;2023-12-22T08:49:46;6.05;;;4.45;;
40649;SDS011;26342;42.826;23.992;2023-12-22T08:52:11;11.75;;;5.78;;
40649;SDS011;26342;42.826;23.992;2023-12-22T08:54:38;6.95;;;3.55;;
40649;SDS011;26342;42.826;23.992;2023-12-22T08:57:03;6.30;;;2.33;;
40649;SDS011;26342;42.826;23.992;2023-12-22T08:59:29;2.35;;;1.02;;
40649;SDS011;26342;42.826;23.992;2023-12-22T09:01:54;2.35;;;1.88;;
40649;SDS011;26342;42.826;23.992;2023-12-22T09:04:20;1.38;;;1.23;;
40649;SDS011;26342;42.826;23.992;2023-12-22T09:06:47;1.17;;;1.08;;
40649;SDS011;26342;42.826;23.992;2023-12-22T09:09:16;3.08;;;1.92;;
40649;SDS011;26342;42.826;23.992;2023-12-22T09:11:42;4.55;;;1.35;;
40649;SDS011;26342;42.826;23.992;2023-12-22T09:14:07;11.98;;;2.33;;
40649;SDS011;26342;42.826;23.992;2023-12-22T09:16:34;10.57;;;3.90;;
40649;SDS011;26342;42.826;23.992;2023-12-22T09:19:00;9.25;;;2.30;;
40649;SDS011;26342;42.826;23.992;2023-12-22T09:21:26;10.52;;;3.33;;
40649;SDS011;26342;42.826;23.992;2023-12-22T09:23:52;8.73;;;3.00;;
40649;SDS011;26342;42.826;23.992;2023-12-22T09:26:17;1.55;;;1.15;;
40649;SDS011;26342;42.826;23.992;2023-12-22T09:28:43;0.60;;;0.57;;
40649;SDS011;26342;42.826;23.992;2023-12-22T09:31:09;0.93;;;0.82;;
40649;SDS011;26342;42.826;23.992;2023-12-22T09:33:35;6.47;;;3.80;;
40649;SDS011;26342;42.826;23.992;2023-12-22T09:36:01;17.02;;;8.23;;
40649;SDS011;26342;42.826;23.992;2023-12-22T09:38:27;14.48;;;7.30;;
40649;SDS011;26342;42.826;23.992;2023-12-22T09:40:54;19.10;;;11.02;;
40649;SDS011;26342;42.826;23.992;2023-12-22T09:43:21;11.52;;;5.63;;
40649;SDS011;26342;42.826;23.992;2023-12-22T09:45:46;6.40;;;2.60;;
40649;SDS011;26342;42.826;23.992;2023-12-22T09:48:14;4.63;;;3.45;;
40649;SDS011;26342;42.826;23.992;2023-12-22T09:50:43;8.85;;;4.93;;
40649;SDS011;26342;42.826;23.992;2023-12-22T09:53:10;12.82;;;6.57;;
40649;SDS011;26342;42.826;23.992;2023-12-22T09:55:39;9.95;;;5.53;;
40649;SDS011;26342;42.826;23.992;2023-12-22T09:58:07;22.83;;;12.38;;
40649;SDS011;26342;42.826;23.992;2023-12-22T10:00:34;15.63;;;7.10;;
40649;SDS011;26342;42.826;23.992;2023-12-22T10:03:09;20.30;;;8.90;;
40649;SDS011;26342;42.826;23.992;2023-12-22T10:05:42;23.27;;;9.68;;
40649;SDS011;26342;42.826;23.992;2023-12-22T10:08:08;15.82;;;7.63;;
40649;SDS011;26342;42.826;23.992;2023-12-22T10:10:40;18.45;;;7.05;;
40649;SDS011;26342;42.826;23.992;2023-12-22T10:13:08;17.00;;;6.90;;
40649;SDS011;26342;42.826;23.992;2023-12-22T10:15:36;9.80;;;6.22;;
40649;SDS011;26342;42.826;23.992;2023-12-22T10:18:05;7.22;;;3.60;;
40649;SDS011;26342;42.826;23.992;2023-12-22T10:20:31;5.72;;;3.60;;
40649;SDS011;26342;42.826;23.992;2023-12-22T10:22:57;5.15;;;3.38;;
40649;SDS011;26342;42.826;23.992;2023-12-22T10:25:27;4.82;;;2.22;;
40649;SDS011;26342;42.826;23.992;2023-12-22T10:27:52;2.17;;;1.83;;
40649;SDS011;26342;42.826;23.992;2023-12-22T10:30:18;4.60;;;2.80;;
40649;SDS011;26342;42.826;23.992;2023-12-22T10:32:46;8.20;;;5.03;;
40649;SDS011;26342;42.826;23.992;2023-12-22T10:35:11;11.80;;;5.80;;
40649;SDS011;26342;42.826;23.992;2023-12-22T10:37:37;21.50;;;7.07;;
40649;SDS011;26342;42.826;23.992;2023-12-22T10:40:06;9.88;;;5.53;;
40649;SDS011;26342;42.826;23.992;2023-12-22T10:42:34;10.02;;;6.25;;
40649;SDS011;26342;42.826;23.992;2023-12-22T10:45:00;7.43;;;5.30;;
40649;SDS011;26342;42.826;23.992;2023-12-22T10:47:25;4.20;;;3.20;;
40649;SDS011;26342;42.826;23.992;2023-12-22T10:49:52;3.65;;;3.05;;
40649;SDS011;26342;42.826;23.992;2023-12-22T10:52:19;6.00;;;3.70;;
40649;SDS011;26342;42.826;23.992;2023-12-22T10:54:47;6.28;;;2.72;;
40649;SDS011;26342;42.826;23.992;2023-12-22T10:57:16;2.25;;;1.55;;
40649;SDS011;26342;42.826;23.992;2023-12-22T10:59:44;3.50;;;2.90;;
40649;SDS011;26342;42.826;23.992;2023-12-22T11:02:17;2.25;;;1.70;;
40649;SDS011;26342;42.826;23.992;2023-12-22T11:04:57;8.68;;;2.65;;
40649;SDS011;26342;42.826;23.992;2023-12-22T11:07:26;4.97;;;2.60;;
40649;SDS011;26342;42.826;23.992;2023-12-22T11:09:55;1.60;;;1.27;;
40649;SDS011;26342;42.826;23.992;2023-12-22T11:12:23;1.73;;;0.85;;
40649;SDS011;26342;42.826;23.992;2023-12-22T11:14:51;2.30;;;1.15;;
40649;SDS011;26342;42.826;23.992;2023-12-22T11:17:19;4.50;;;2.25;;
40649;SDS011;26342;42.826;23.992;2023-12-22T11:19:47;3.47;;;1.65;;
40649;SDS011;26342;42.826;23.992;2023-12-22T11:22:16;2.47;;;1.33;;
40649;SDS011;26342;42.826;23.992;2023-12-22T11:24:44;1.15;;;1.05;;
40649;SDS011;26342;42.826;23.992;2023-12-22T11:27:12;1.27;;;0.57;;
40649;SDS011;26342;42.826;23.992;2023-12-22T11:29:39;1.40;;;0.80;;
40649;SDS011;26342;42.826;23.992;2023-12-22T11:32:06;1.63;;;1.52;;
40649;SDS011;26342;42.826;23.992;2023-12-22T11:34:32;2.67;;;1.63;;
40649;SDS011;26342;42.826;23.992;2023-12-22T11:37:03;3.53;;;1.95;;
40649;SDS011;26342;42.826;23.992;2023-12-22T11:39:28;4.22;;;1.15;;
40649;SDS011;26342;42.826;23.992;2023-12-22T11:41:54;0.75;;;0.73;;
40649;SDS011;26342;42.826;23.992;2023-12-22T11:44:22;1.77;;;1.40;;
40649;SDS011;26342;42.826;23.992;2023-12-22T11:46:47;1.02;;;0.93;;
40649;SDS011;26342;42.826;23.992;2023-12-22T11:49:13;0.70;;;0.52;;
40649;SDS011;26342;42.826;23.992;2023-12-22T11:51:39;0.38;;;0.35;;
40649;SDS011;26342;42.826;23.992;2023-12-22T11:54:24;5.68;;;0.88;;
40649;SDS011;26342;42.826;23.992;2023-12-22T11:59:57;1.13;;;0.90;;
40649;SDS011;26342;42.826;23.992;2023-12-22T12:02:23;0.55;;;0.55;;
40649;SDS011;26342;42.826;23.992;2023-12-22T12:04:48;0.30;;;0.30;;
40649;SDS011;26342;42.826;23.992;2023-12-22T12:10:10;1.13;;;1.02;;
40649;SDS011;26342;42.826;23.992;2023-12-22T12:12:36;0.05;;;0.05;;
40649;SDS011;26342;42.826;23.992;2023-12-22T12:15:12;0.95;;;0.70;;
40649;SDS011;26342;42.826;23.992;2023-12-22T12:17:42;0.70;;;0.70;;
40649;SDS011;26342;42.826;23.992;2023-12-22T12:20:08;4.65;;;0.65;;
40649;SDS011;26342;42.826;23.992;2023-12-22T12:22:35;0.20;;;0.20;;
40649;SDS011;26342;42.826;23.992;2023-12-22T12:25:08;0.63;;;0.60;;
40649;SDS011;26342;42.826;23.992;2023-12-22T12:27:37;2.30;;;1.20;;
40649;SDS011;26342;42.826;23.992;2023-12-22T12:30:08;1.77;;;1.05;;
40649;SDS011;26342;42.826;23.992;2023-12-22T12:35:02;5.00;;;1.20;;
40649;SDS011;26342;42.826;23.992;2023-12-22T12:37:29;3.30;;;1.88;;
40649;SDS011;26342;42.826;23.992;2023-12-22T12:39:55;2.83;;;1.90;;
40649;SDS011;26342;42.826;23.992;2023-12-22T12:42:24;4.53;;;2.10;;
40649;SDS011;26342;42.826;23.992;2023-12-22T12:44:55;2.83;;;1.92;;
40649;SDS011;26342;42.826;23.992;2023-12-22T12:47:21;6.32;;;2.75;;
40649;SDS011;26342;42.826;23.992;2023-12-22T12:49:46;3.58;;;2.65;;
40649;SDS011;26342;42.826;23.992;2023-12-22T12:52:12;4.13;;;2.95;;
40649;SDS011;26342;42.826;23.992;2023-12-22T12:54:39;7.53;;;2.47;;
40649;SDS011;26342;42.826;23.992;2023-12-22T12:57:04;2.60;;;1.88;;
40649;SDS011;26342;42.826;23.992;2023-12-22T12:59:30;5.45;;;3.05;;
40649;SDS011;26342;42.826;23.992;2023-12-22T13:01:55;5.93;;;3.08;;
40649;SDS011;26342;42.826;23.992;2023-12-22T13:04:22;6.00;;;2.90;;
40649;SDS011;26342;42.826;23.992;2023-12-22T13:06:49;3.63;;;2.67;;
40649;SDS011;26342;42.826;23.992;2023-12-22T13:09:15;2.20;;;1.55;;
40649;SDS011;26342;42.826;23.992;2023-12-22T13:11:42;3.40;;;3.10;;
40649;SDS011;26342;42.826;23.992;2023-12-22T13:14:09;2.75;;;1.60;;
40649;SDS011;26342;42.826;23.992;2023-12-22T13:16:35;5.35;;;3.20;;
40649;SDS011;26342;42.826;23.992;2023-12-22T13:19:01;5.10;;;3.60;;
40649;SDS011;26342;42.826;23.992;2023-12-22T13:21:28;21.80;;;3.83;;
40649;SDS011;26342;42.826;23.992;2023-12-22T13:24:09;7.78;;;3.08;;
40649;SDS011;26342;42.826;23.992;2023-12-22T13:26:38;3.70;;;2.58;;
40649;SDS011;26342;42.826;23.992;2023-12-22T13:29:05;7.65;;;2.88;;
40649;SDS011;26342;42.826;23.992;2023-12-22T13:31:38;1.70;;;1.23;;
40649;SDS011;26342;42.826;23.992;2023-12-22T13:34:11;5.15;;;3.00;;
40649;SDS011;26342;42.826;23.992;2023-12-22T13:36:38;4.75;;;2.75;;
40649;SDS011;26342;42.826;23.992;2023-12-22T13:39:05;8.07;;;3.53;;
40649;SDS011;26342;42.826;23.992;2023-12-22T13:41:34;7.88;;;5.05;;
40649;SDS011;26342;42.826;23.992;2023-12-22T13:44:06;5.93;;;3.78;;
40649;SDS011;26342;42.826;23.992;2023-12-22T13:46:32;18.52;;;8.40;;
40649;SDS011;26342;42.826;23.992;2023-12-22T13:49:00;6.05;;;3.35;;
40649;SDS011;26342;42.826;23.992;2023-12-22T13:51:38;3.33;;;2.25;;
40649;SDS011;26342;42.826;23.992;2023-12-22T13:54:12;4.88;;;3.13;;
40649;SDS011;26342;42.826;23.992;2023-12-22T13:56:38;3.05;;;2.75;;
40649;SDS011;26342;42.826;23.992;2023-12-22T13:59:06;2.88;;;1.70;;
40649;SDS011;26342;42.826;23.992;2023-12-22T14:01:31;4.10;;;2.25;;
40649;SDS011;26342;42.826;23.992;2023-12-22T14:03:58;6.40;;;1.83;;
40649;SDS011;26342;42.826;23.992;2023-12-22T14:06:25;7.85;;;2.97;;
40649;SDS011;26342;42.826;23.992;2023-12-22T14:08:51;7.82;;;4.18;;
40649;SDS011;26342;42.826;23.992;2023-12-22T14:11:17;11.15;;;6.53;;
40649;SDS011;26342;42.826;23.992;2023-12-22T14:13:42;10.00;;;5.65;;
40649;SDS011;26342;42.826;23.992;2023-12-22T14:16:08;5.88;;;2.38;;
40649;SDS011;26342;42.826;23.992;2023-12-22T14:18:33;5.72;;;4.53;;
40649;SDS011;26342;42.826;23.992;2023-12-22T14:20:59;5.25;;;3.67;;
40649;SDS011;26342;42.826;23.992;2023-12-22T14:23:25;3.92;;;2.42;;
40649;SDS011;26342;42.826;23.992;2023-12-22T14:25:51;2.42;;;1.77;;
40649;SDS011;26342;42.826;23.992;2023-12-22T14:28:17;4.85;;;3.55;;
40649;SDS011;26342;42.826;23.992;2023-12-22T14:30:42;10.05;;;2.50;;
40649;SDS011;26342;42.826;23.992;2023-12-22T14:33:07;4.38;;;2.53;;
40649;SDS011;26342;42.826;23.992;2023-12-22T14:35:33;3.63;;;2.63;;